TPQ weather

Amado Nervo National Airport
Tepic, Nayarit, Mexico

Public forecast

Using degrees Celsius for public forecast. Weather courtesy of forecast.io.

METAR (pilot weather report)

Retrieved 2017/12/15 15:52 UTC (33 minutes ago):

MMEP 151552Z 01004KT 6SM BKN012 OVC070 15/15 A3005 RMK 8/57/

TAF (pilot weather forecast)

Forecast is more than 12 hours old.

Retrieved 2017/12/07 14:00 UTC (8 days ago):

TAF COR MMEP 071458Z 0714/0806 00000KT 0SM FG VV000 FM071500 00000KT 3SM BR BKN250 FM071530 00000KT 6SM HZ SCT015 BKN250 FM071630 34008KT P6SM BKN250 FM080300 34005KT 6SM HZ SCT250